Coulee, North Dakota
Current Conditions -  °F | °C
As of 6:35 AM on Saturday 20 Dec 2014 (Local Time) from K08D Reporting Station
Overcast Overcast  
Wind Chill: -11°   Ceiling: 11000
Heat Index: -11°   Visibility: 9mi
Dew Point: -11°   Wind: 0mph
Humidity: 100%   Direction: NA
Pressure: 29.85"   Gusts: NA
Location:  48.4598°N, 101.907°W
Report Text: K08D 201235Z AUTO 00000KT 9SM SCT003 OVC110 M11/M11 A2985 RMK AO2
Loading
Personal Weather Stations






























Interactive Weather Map New forecast layout! Learn more

10-Day Weather Forecast

Advertisements
Track Severe Weather on mobile